createdAt,value
2017-12-02T00:00:02.005Z,0
2017-12-02T00:01:12.573Z,0
2017-12-02T00:02:23.752Z,0
2017-12-02T00:03:34.038Z,0
2017-12-02T00:04:44.106Z,0
2017-12-02T00:05:54.057Z,0
2017-12-02T00:07:04.351Z,0
2017-12-02T00:08:14.373Z,0
2017-12-02T00:09:24.727Z,0
2017-12-02T00:10:35.050Z,0
2017-12-02T00:11:45.350Z,0
2017-12-02T00:12:55.388Z,0
2017-12-02T00:14:05.412Z,0
2017-12-02T00:15:15.970Z,0
2017-12-02T00:16:26.104Z,0
2017-12-02T00:17:36.367Z,0
2017-12-02T00:18:46.464Z,0
2017-12-02T00:19:56.747Z,0
2017-12-02T00:21:07.012Z,0
2017-12-02T00:22:17.057Z,0
2017-12-02T00:23:27.040Z,0
2017-12-02T00:24:37.981Z,0
2017-12-02T00:25:48.467Z,0
2017-12-02T00:26:59.703Z,0
2017-12-02T00:28:10.252Z,0
2017-12-02T00:29:20.076Z,0
2017-12-02T00:30:31.046Z,0
2017-12-02T00:31:42.363Z,0
2017-12-02T00:32:53.262Z,0
2017-12-02T00:34:03.825Z,0
2017-12-02T00:35:14.042Z,0
2017-12-02T00:36:24.481Z,0
2017-12-02T00:37:35.835Z,0
2017-12-02T00:38:46.135Z,0
2017-12-02T00:40:11.472Z,0
2017-12-02T00:41:22.204Z,0
2017-12-02T00:42:32.927Z,0
2017-12-02T00:43:43.211Z,0
2017-12-02T00:44:53.493Z,0
2017-12-02T00:46:03.618Z,0
2017-12-02T00:47:14.090Z,0
2017-12-02T00:48:23.786Z,0
2017-12-02T00:49:34.075Z,0
2017-12-02T00:50:44.345Z,0
2017-12-02T00:51:54.976Z,0
2017-12-02T00:53:05.289Z,0
2017-12-02T00:54:15.554Z,0
2017-12-02T00:55:25.563Z,0
2017-12-02T00:56:36.194Z,0
2017-12-02T00:57:46.366Z,0
2017-12-02T00:58:57.286Z,0
2017-12-02T01:00:07.040Z,0
2017-12-02T01:01:17.333Z,0
2017-12-02T01:02:27.682Z,0
2017-12-02T01:03:38.376Z,0
2017-12-02T01:04:48.133Z,0
2017-12-02T01:05:58.424Z,0
2017-12-02T01:07:08.885Z,0
2017-12-02T01:08:19.366Z,0
2017-12-02T01:09:44.389Z,0
2017-12-02T01:10:54.459Z,0
2017-12-02T01:12:04.946Z,0
2017-12-02T01:13:14.732Z,0
2017-12-02T01:14:56.644Z,0
2017-12-02T01:16:07.746Z,0
2017-12-02T01:17:18.219Z,0
2017-12-02T01:18:28.243Z,0
2017-12-02T01:19:38.559Z,0
2017-12-02T01:20:48.571Z,0
2017-12-02T01:21:58.876Z,0
2017-12-02T01:23:09.143Z,0
2017-12-02T01:24:19.703Z,0
2017-12-02T01:25:30.269Z,0
2017-12-02T01:26:40.561Z,0
2017-12-02T01:27:50.926Z,0
2017-12-02T01:29:00.987Z,0
2017-12-02T01:30:11.285Z,0
2017-12-02T01:31:21.655Z,0
2017-12-02T01:32:32.071Z,0
2017-12-02T01:33:42.574Z,0
2017-12-02T01:34:52.860Z,0
2017-12-02T01:36:03.116Z,0
2017-12-02T01:37:13.177Z,0
2017-12-02T01:38:23.695Z,0
2017-12-02T01:39:34.074Z,0
2017-12-02T01:40:44.188Z,0
2017-12-02T01:41:54.460Z,0
2017-12-02T01:43:04.947Z,0
2017-12-02T01:44:14.598Z,0
2017-12-02T01:45:25.340Z,0
2017-12-02T01:46:35.790Z,0
2017-12-02T01:47:45.800Z,0
2017-12-02T01:48:56.271Z,0
2017-12-02T01:50:07.310Z,0
2017-12-02T01:51:17.805Z,0
2017-12-02T01:52:28.112Z,0
2017-12-02T01:53:38.294Z,0
2017-12-02T01:54:49.618Z,0
2017-12-02T01:55:59.335Z,0
2017-12-02T01:57:09.513Z,0
2017-12-02T01:58:20.200Z,0
2017-12-02T01:59:30.466Z,0
2017-12-02T02:00:41.211Z,0
2017-12-02T02:01:50.935Z,0
2017-12-02T02:03:16.422Z,0
2017-12-02T02:04:26.446Z,0
2017-12-02T02:05:37.104Z,0
2017-12-02T02:06:48.081Z,0
2017-12-02T02:07:57.850Z,0
2017-12-02T02:09:08.427Z,0
2017-12-02T02:10:18.756Z,0
2017-12-02T02:11:29.098Z,0
2017-12-02T02:12:39.428Z,0
2017-12-02T02:13:50.355Z,0
2017-12-02T02:15:01.520Z,0
2017-12-02T02:16:11.635Z,0
2017-12-02T02:17:21.623Z,0
2017-12-02T02:18:31.883Z,0
2017-12-02T02:19:41.889Z,0
2017-12-02T02:20:52.131Z,0
2017-12-02T02:22:02.002Z,0
2017-12-02T02:23:12.121Z,0
2017-12-02T02:24:22.828Z,0
2017-12-02T02:25:33.171Z,0
2017-12-02T02:26:43.689Z,0
2017-12-02T02:27:54.757Z,0
2017-12-02T02:29:05.450Z,0
2017-12-02T02:30:16.678Z,0
2017-12-02T02:31:26.614Z,0
2017-12-02T02:32:36.982Z,0
2017-12-02T02:33:47.752Z,0
2017-12-02T02:34:57.652Z,0
2017-12-02T02:36:08.108Z,0
2017-12-02T02:37:18.861Z,0
2017-12-02T02:38:29.446Z,0
2017-12-02T02:39:40.058Z,0
2017-12-02T02:40:50.582Z,0
2017-12-02T02:42:01.579Z,0
2017-12-02T02:43:11.931Z,0
2017-12-02T02:44:22.269Z,0
2017-12-02T02:45:32.547Z,0
2017-12-02T02:46:43.188Z,0
2017-12-02T02:47:53.784Z,0
2017-12-02T02:49:04.131Z,0
2017-12-02T02:50:14.190Z,0
2017-12-02T02:51:24.822Z,0
2017-12-02T02:52:38.335Z,0
2017-12-02T02:53:48.675Z,0
2017-12-02T02:54:59.622Z,0
2017-12-02T02:56:09.914Z,0
2017-12-02T02:57:20.184Z,0
2017-12-02T02:58:30.700Z,0
2017-12-02T02:59:41.126Z,0
2017-12-02T03:00:51.560Z,0
2017-12-02T03:02:01.760Z,0
2017-12-02T03:03:12.617Z,0
2017-12-02T03:04:23.283Z,0
2017-12-02T03:05:33.631Z,0
2017-12-02T03:06:43.885Z,0
2017-12-02T03:07:54.153Z,0
2017-12-02T03:09:04.422Z,0
2017-12-02T03:10:14.903Z,0
2017-12-02T03:11:24.903Z,0
2017-12-02T03:12:35.316Z,0
2017-12-02T03:14:00.414Z,0
2017-12-02T03:15:11.549Z,0
2017-12-02T03:16:21.570Z,0
2017-12-02T03:17:31.867Z,0
2017-12-02T03:18:43.608Z,0
2017-12-02T03:20:08.156Z,0
2017-12-02T03:21:18.406Z,0
2017-12-02T03:22:29.105Z,0
2017-12-02T03:23:38.710Z,0
2017-12-02T03:24:48.751Z,0
2017-12-02T03:25:59.115Z,0
2017-12-02T03:27:09.412Z,0
2017-12-02T03:28:19.341Z,0
2017-12-02T03:29:30.683Z,0
2017-12-02T03:30:41.256Z,0
2017-12-02T03:31:53.295Z,0
2017-12-02T03:33:03.664Z,0
2017-12-02T03:34:13.869Z,0
2017-12-02T03:35:24.113Z,0
2017-12-02T03:36:34.417Z,0
2017-12-02T03:37:45.315Z,0
2017-12-02T03:38:55.341Z,0
2017-12-02T03:40:05.591Z,0
2017-12-02T03:41:15.883Z,0
2017-12-02T03:42:26.404Z,0
2017-12-02T03:43:37.310Z,0
2017-12-02T03:44:48.033Z,0
2017-12-02T03:45:58.563Z,0
2017-12-02T03:47:08.891Z,0
2017-12-02T03:48:18.911Z,0
2017-12-02T03:49:29.352Z,0
2017-12-02T03:50:40.507Z,0
2017-12-02T03:51:51.170Z,0
2017-12-02T03:53:01.874Z,0
2017-12-02T03:54:12.558Z,0
2017-12-02T03:55:24.450Z,0
2017-12-02T03:56:34.639Z,0
2017-12-02T03:57:45.207Z,0
2017-12-02T03:58:55.510Z,0
2017-12-02T04:00:05.847Z,0
2017-12-02T04:01:16.358Z,0
2017-12-02T04:02:26.857Z,0
2017-12-02T04:03:37.348Z,0
2017-12-02T04:04:46.988Z,0
2017-12-02T04:05:57.259Z,0
2017-12-02T04:07:07.269Z,0
2017-12-02T04:08:17.825Z,0
2017-12-02T04:09:27.808Z,0
2017-12-02T04:10:38.149Z,0
2017-12-02T04:11:48.162Z,0
2017-12-02T04:12:58.153Z,0
2017-12-02T04:14:08.156Z,0
2017-12-02T04:15:18.690Z,0
2017-12-02T04:16:28.958Z,0
2017-12-02T04:17:39.223Z,0
2017-12-02T04:18:49.508Z,0
2017-12-02T04:19:59.795Z,0
2017-12-02T04:21:09.780Z,0
2017-12-02T04:22:20.091Z,0
2017-12-02T04:23:30.341Z,0
2017-12-02T04:24:40.628Z,0
2017-12-02T04:25:51.019Z,0
2017-12-02T04:27:00.929Z,0
2017-12-02T04:28:11.338Z,0
2017-12-02T04:29:21.689Z,0
2017-12-02T04:30:32.050Z,0
2017-12-02T04:31:42.318Z,0
2017-12-02T04:32:52.552Z,0
2017-12-02T04:34:02.605Z,0
2017-12-02T04:35:12.801Z,0
2017-12-02T04:36:23.166Z,0
2017-12-02T04:37:33.442Z,0
2017-12-02T04:38:43.739Z,0
2017-12-02T04:39:53.925Z,0
2017-12-02T04:41:04.015Z,0
2017-12-02T04:42:14.597Z,0
2017-12-02T04:43:24.500Z,0
2017-12-02T04:44:34.827Z,0
2017-12-02T04:45:44.865Z,0
2017-12-02T04:46:54.743Z,0
2017-12-02T04:48:05.015Z,0
2017-12-02T04:49:15.272Z,0
2017-12-02T04:50:25.765Z,0
2017-12-02T04:51:36.018Z,0
2017-12-02T04:52:46.290Z,0
2017-12-02T04:53:56.546Z,0
2017-12-02T04:55:06.830Z,0
2017-12-02T04:56:17.112Z,0
2017-12-02T04:57:27.136Z,0
2017-12-02T04:58:37.395Z,0
2017-12-02T04:59:47.670Z,0
2017-12-02T05:00:57.927Z,0
2017-12-02T05:02:08.415Z,0
2017-12-02T05:03:18.411Z,0
2017-12-02T05:04:28.528Z,0
2017-12-02T05:05:38.653Z,0
2017-12-02T05:06:48.371Z,0
2017-12-02T05:07:58.648Z,0
2017-12-02T05:09:08.984Z,0
2017-12-02T05:10:19.241Z,0
2017-12-02T05:11:29.606Z,0
2017-12-02T05:12:39.640Z,0
2017-12-02T05:13:49.908Z,0
2017-12-02T05:14:59.642Z,0
2017-12-02T05:16:09.670Z,0
2017-12-02T05:17:19.957Z,0
2017-12-02T05:18:30.232Z,0
2017-12-02T05:19:40.201Z,0
2017-12-02T05:20:49.940Z,0
2017-12-02T05:22:00.210Z,0
2017-12-02T05:23:10.497Z,0
2017-12-02T05:24:20.763Z,0
2017-12-02T05:25:30.959Z,0
2017-12-02T05:26:41.221Z,0
2017-12-02T05:27:52.406Z,0
2017-12-02T05:29:02.727Z,0
2017-12-02T05:30:13.017Z,0
2017-12-02T05:31:23.006Z,0
2017-12-02T05:32:33.272Z,0
2017-12-02T05:33:42.924Z,0
2017-12-02T05:34:52.894Z,0
2017-12-02T05:36:03.222Z,0
2017-12-02T05:37:13.483Z,0
2017-12-02T05:38:23.934Z,0
2017-12-02T05:39:33.962Z,0
2017-12-02T05:40:43.988Z,0
2017-12-02T05:41:54.241Z,0
2017-12-02T05:43:04.492Z,0
2017-12-02T05:44:14.749Z,0
2017-12-02T05:45:25.028Z,0
2017-12-02T05:46:35.054Z,0
2017-12-02T05:47:45.354Z,0
2017-12-02T05:48:55.630Z,0
2017-12-02T05:50:06.168Z,0
2017-12-02T05:51:16.419Z,0
2017-12-02T05:52:26.709Z,0
2017-12-02T05:53:37.261Z,0
2017-12-02T05:54:47.617Z,0
2017-12-02T05:55:57.898Z,0
2017-12-02T05:57:08.370Z,0
2017-12-02T05:58:18.631Z,0
2017-12-02T05:59:28.527Z,0
2017-12-02T06:00:38.801Z,0
2017-12-02T06:01:49.214Z,0
2017-12-02T06:02:59.534Z,0
2017-12-02T06:04:09.814Z,0
2017-12-02T06:05:20.110Z,0
2017-12-02T06:06:30.353Z,0
2017-12-02T06:07:40.881Z,0
2017-12-02T06:08:50.862Z,0
2017-12-02T06:10:00.864Z,0
2017-12-02T06:11:10.848Z,0
2017-12-02T06:12:20.608Z,0
2017-12-02T06:13:30.893Z,0
2017-12-02T06:14:41.150Z,0
2017-12-02T06:15:51.425Z,0
2017-12-02T06:17:01.892Z,0
2017-12-02T06:18:12.365Z,0
2017-12-02T06:19:22.895Z,0
2017-12-02T06:20:33.212Z,0
2017-12-02T06:21:43.702Z,0
2017-12-02T06:22:54.025Z,0
2017-12-02T06:24:04.341Z,0
2017-12-02T06:25:14.404Z,0
2017-12-02T06:26:24.688Z,0
2017-12-02T06:27:35.007Z,0
2017-12-02T06:28:45.140Z,0
2017-12-02T06:29:55.417Z,0
2017-12-02T06:31:05.770Z,0
2017-12-02T06:32:16.060Z,0
2017-12-02T06:33:26.333Z,0
2017-12-02T06:34:36.199Z,0
2017-12-02T06:35:46.467Z,0
2017-12-02T06:36:56.751Z,0
2017-12-02T06:38:07.211Z,0
2017-12-02T06:39:17.501Z,0
2017-12-02T06:40:27.780Z,0
2017-12-02T06:41:38.351Z,0
2017-12-02T06:42:48.416Z,0
2017-12-02T06:43:58.416Z,0
2017-12-02T06:45:08.677Z,0
2017-12-02T06:46:19.222Z,0
2017-12-02T06:47:29.606Z,0
2017-12-02T06:48:39.657Z,0
2017-12-02T06:49:49.938Z,0
2017-12-02T06:51:00.188Z,0
2017-12-02T06:52:10.440Z,0
2017-12-02T06:53:20.708Z,0
2017-12-02T06:54:31.016Z,0
2017-12-02T06:55:41.270Z,0
2017-12-02T06:56:51.609Z,0
2017-12-02T06:58:02.123Z,0
2017-12-02T06:59:12.489Z,0
2017-12-02T07:00:22.506Z,0
2017-12-02T07:01:32.787Z,0
2017-12-02T07:02:43.061Z,0
2017-12-02T07:03:53.341Z,0
2017-12-02T07:05:03.665Z,5
2017-12-02T07:06:13.939Z,5
2017-12-02T07:07:24.429Z,5
2017-12-02T07:08:34.433Z,5
2017-12-02T07:09:44.758Z,5
2017-12-02T07:10:55.029Z,5
2017-12-02T07:12:04.940Z,5
2017-12-02T07:13:14.569Z,5
2017-12-02T07:14:24.934Z,5
2017-12-02T07:15:35.011Z,5
2017-12-02T07:16:45.398Z,5
2017-12-02T07:17:55.171Z,10
2017-12-02T07:19:05.200Z,10
2017-12-02T07:20:15.261Z,10
2017-12-02T07:21:25.540Z,10
2017-12-02T07:22:36.139Z,10
2017-12-02T07:23:46.396Z,10
2017-12-02T07:24:56.675Z,10
2017-12-02T07:26:06.960Z,10
2017-12-02T07:27:17.210Z,10
2017-12-02T07:28:27.473Z,10
2017-12-02T07:29:37.543Z,15
2017-12-02T07:30:47.823Z,15
2017-12-02T07:31:58.102Z,15
2017-12-02T07:33:07.843Z,15
2017-12-02T07:34:17.856Z,15
2017-12-02T07:35:28.014Z,15
2017-12-02T07:36:38.368Z,15
2017-12-02T07:37:48.648Z,20
2017-12-02T07:38:58.948Z,20
2017-12-02T07:40:09.201Z,20
2017-12-02T07:41:19.579Z,25
2017-12-02T07:42:30.067Z,25
2017-12-02T07:43:40.552Z,30
2017-12-02T07:44:51.121Z,30
2017-12-02T07:46:01.246Z,30
2017-12-02T07:47:10.990Z,30
2017-12-02T07:48:22.331Z,30
2017-12-02T07:49:32.673Z,30
2017-12-02T07:50:42.958Z,30
2017-12-02T07:51:53.282Z,30
2017-12-02T07:53:03.648Z,30
2017-12-02T07:54:14.034Z,30
2017-12-02T07:55:24.370Z,30
2017-12-02T07:56:34.986Z,30
2017-12-02T07:57:45.466Z,30
2017-12-02T07:58:55.981Z,30
2017-12-02T08:00:06.281Z,35
2017-12-02T08:01:16.582Z,35
2017-12-02T08:02:26.912Z,35
2017-12-02T08:03:37.334Z,40
2017-12-02T08:04:48.052Z,40
2017-12-02T08:05:58.358Z,40
2017-12-02T08:07:08.642Z,40
2017-12-02T08:08:18.641Z,45
2017-12-02T08:09:29.034Z,45
2017-12-02T08:10:39.035Z,50
2017-12-02T08:11:48.922Z,55
2017-12-02T08:12:59.215Z,55
2017-12-02T08:14:09.326Z,60
2017-12-02T08:15:19.633Z,70
2017-12-02T08:16:29.733Z,70
2017-12-02T08:17:40.276Z,70
2017-12-02T08:18:50.176Z,75
2017-12-02T08:20:00.481Z,80
2017-12-02T08:21:10.759Z,90
2017-12-02T08:22:21.051Z,95
2017-12-02T08:23:31.438Z,100
2017-12-02T08:24:41.975Z,100
2017-12-02T08:25:52.078Z,105
2017-12-02T08:27:02.368Z,105
2017-12-02T08:28:12.396Z,95
2017-12-02T08:29:22.660Z,90
2017-12-02T08:30:32.709Z,95
2017-12-02T08:31:43.119Z,100
2017-12-02T08:32:53.210Z,110
2017-12-02T08:34:02.871Z,120
2017-12-02T08:35:13.332Z,130
2017-12-02T08:36:23.342Z,140
2017-12-02T08:37:33.417Z,145
2017-12-02T08:38:43.702Z,145
2017-12-02T08:39:54.285Z,150
2017-12-02T08:41:04.601Z,150
2017-12-02T08:42:15.028Z,150
2017-12-02T08:43:25.377Z,150
2017-12-02T08:44:35.705Z,140
2017-12-02T08:45:46.185Z,140
2017-12-02T08:46:56.902Z,130
2017-12-02T08:48:07.126Z,110
2017-12-02T08:49:17.826Z,105
2017-12-02T08:50:28.188Z,100
2017-12-02T08:51:38.693Z,90
2017-12-02T08:52:50.398Z,90
2017-12-02T08:54:00.892Z,90
2017-12-02T08:55:11.202Z,90
2017-12-02T08:56:20.855Z,95
2017-12-02T08:57:30.819Z,100
2017-12-02T08:58:41.122Z,105
2017-12-02T08:59:51.199Z,115
2017-12-02T09:01:01.193Z,125
2017-12-02T09:02:10.962Z,130
2017-12-02T09:03:21.264Z,125
2017-12-02T09:04:31.759Z,125
2017-12-02T09:05:43.159Z,115
2017-12-02T09:07:25.246Z,95
2017-12-02T09:08:35.042Z,90
2017-12-02T09:09:45.317Z,85
2017-12-02T09:10:55.606Z,85
2017-12-02T09:12:06.167Z,80
2017-12-02T09:13:16.968Z,80
2017-12-02T09:14:27.283Z,80
2017-12-02T09:15:38.156Z,80
2017-12-02T09:16:48.182Z,80
2017-12-02T09:17:57.823Z,85
2017-12-02T09:19:08.061Z,100
2017-12-02T09:20:18.738Z,120
2017-12-02T09:21:29.060Z,125
2017-12-02T09:22:39.652Z,95
2017-12-02T09:23:50.018Z,90
2017-12-02T09:25:00.619Z,100
2017-12-02T09:26:11.562Z,110
2017-12-02T09:27:22.011Z,120
2017-12-02T09:28:32.015Z,125
2017-12-02T09:29:42.293Z,130
2017-12-02T09:30:52.399Z,130
2017-12-02T09:32:02.738Z,130
2017-12-02T09:33:13.028Z,130
2017-12-02T09:34:23.533Z,135
2017-12-02T09:35:34.065Z,125
2017-12-02T09:36:44.083Z,135
2017-12-02T09:37:54.015Z,160
2017-12-02T09:39:04.453Z,170
2017-12-02T09:40:14.961Z,185
2017-12-02T09:41:25.241Z,180
2017-12-02T09:42:35.847Z,190
2017-12-02T09:43:46.168Z,215
2017-12-02T09:44:56.180Z,245
2017-12-02T09:46:06.241Z,265
2017-12-02T09:47:16.717Z,245
2017-12-02T09:48:26.997Z,220
2017-12-02T09:49:37.397Z,225
2017-12-02T09:50:47.683Z,245
2017-12-02T09:51:57.739Z,280
2017-12-02T09:53:07.916Z,280
2017-12-02T09:54:18.006Z,260
2017-12-02T09:55:28.570Z,245
2017-12-02T09:56:38.843Z,250
2017-12-02T09:57:49.151Z,235
2017-12-02T09:58:59.428Z,240
2017-12-02T10:00:09.458Z,230
2017-12-02T10:01:19.797Z,215
2017-12-02T10:02:29.936Z,245
2017-12-02T10:03:40.053Z,260
2017-12-02T10:04:50.389Z,275
2017-12-02T10:06:00.777Z,305
2017-12-02T10:07:11.221Z,350
2017-12-02T10:08:21.502Z,320
2017-12-02T10:09:31.802Z,310
2017-12-02T10:10:41.887Z,290
2017-12-02T10:11:51.953Z,265
2017-12-02T10:13:02.215Z,260
2017-12-02T10:14:12.571Z,280
2017-12-02T10:15:22.328Z,300
2017-12-02T10:16:32.542Z,470
2017-12-02T10:17:42.833Z,290
2017-12-02T10:18:53.247Z,350
2017-12-02T10:20:03.564Z,575
2017-12-02T10:21:13.658Z,300
2017-12-02T10:22:24.037Z,290
2017-12-02T10:23:34.342Z,270
2017-12-02T10:24:44.641Z,250
2017-12-02T10:25:54.942Z,255
2017-12-02T10:27:05.305Z,255
2017-12-02T10:28:15.643Z,290
2017-12-02T10:29:25.957Z,430
2017-12-02T10:30:36.264Z,450
2017-12-02T10:31:46.956Z,375
2017-12-02T10:32:57.265Z,330
2017-12-02T10:34:07.318Z,315
2017-12-02T10:35:17.349Z,315
2017-12-02T10:36:27.680Z,290
2017-12-02T10:37:38.037Z,315
2017-12-02T10:38:48.162Z,355
2017-12-02T10:39:58.720Z,370
2017-12-02T10:41:09.285Z,330
2017-12-02T10:42:19.569Z,290
2017-12-02T10:43:29.650Z,305
2017-12-02T10:44:39.918Z,295
2017-12-02T10:45:50.327Z,270
2017-12-02T10:47:00.641Z,255
2017-12-02T10:48:11.187Z,250
2017-12-02T10:49:21.549Z,280
2017-12-02T10:50:31.898Z,275
2017-12-02T10:51:56.680Z,275
2017-12-02T10:53:06.978Z,255
2017-12-02T10:54:17.523Z,250
2017-12-02T10:55:28.217Z,255
2017-12-02T10:56:38.509Z,255
2017-12-02T10:57:48.584Z,260
2017-12-02T10:58:58.904Z,250
2017-12-02T11:00:08.944Z,255
2017-12-02T11:01:19.588Z,255
2017-12-02T11:02:29.746Z,255
2017-12-02T11:03:39.764Z,265
2017-12-02T11:04:50.124Z,265
2017-12-02T11:06:00.405Z,235
2017-12-02T11:07:10.747Z,245
2017-12-02T11:08:21.429Z,245
2017-12-02T11:09:32.246Z,245
2017-12-02T11:10:42.291Z,250
2017-12-02T11:11:52.577Z,255
2017-12-02T11:13:03.046Z,255
2017-12-02T11:14:13.631Z,255
2017-12-02T11:15:24.060Z,250
2017-12-02T11:16:33.844Z,240
2017-12-02T11:17:44.342Z,225
2017-12-02T11:18:54.934Z,195
2017-12-02T11:20:04.990Z,180
2017-12-02T11:21:15.330Z,180
2017-12-02T11:22:25.310Z,185
2017-12-02T11:23:36.146Z,190
2017-12-02T11:24:46.435Z,210
2017-12-02T11:25:57.042Z,215
2017-12-02T11:27:07.766Z,235
2017-12-02T11:28:18.287Z,240
2017-12-02T11:29:29.560Z,225
2017-12-02T11:30:40.211Z,205
2017-12-02T11:31:50.557Z,185
2017-12-02T11:33:01.087Z,175
2017-12-02T11:34:11.797Z,165
2017-12-02T11:35:22.368Z,160
2017-12-02T11:36:32.377Z,155
2017-12-02T11:37:42.081Z,145
2017-12-02T11:38:52.823Z,135
2017-12-02T11:40:03.194Z,125
2017-12-02T11:41:13.583Z,115
2017-12-02T11:42:23.602Z,90
2017-12-02T11:43:33.591Z,70
2017-12-02T11:44:43.941Z,55
2017-12-02T11:45:53.899Z,50
2017-12-02T11:47:03.912Z,50
2017-12-02T11:48:14.265Z,50
2017-12-02T11:49:24.712Z,55
2017-12-02T11:50:35.019Z,65
2017-12-02T11:51:45.555Z,80
2017-12-02T11:52:55.471Z,90
2017-12-02T11:54:05.823Z,105
2017-12-02T11:55:16.291Z,115
2017-12-02T11:56:26.706Z,125
2017-12-02T11:57:36.758Z,125
2017-12-02T11:58:47.110Z,130
2017-12-02T11:59:57.187Z,135
2017-12-02T12:01:07.429Z,145
2017-12-02T12:02:18.116Z,160
2017-12-02T12:03:28.464Z,165
2017-12-02T12:04:38.712Z,165
2017-12-02T12:05:48.748Z,165
2017-12-02T12:06:59.167Z,165
2017-12-02T12:08:09.485Z,180
2017-12-02T12:09:19.232Z,195
2017-12-02T12:10:29.628Z,215
2017-12-02T12:11:39.958Z,245
2017-12-02T12:12:50.270Z,250
2017-12-02T12:14:00.548Z,235
2017-12-02T12:15:11.370Z,225
2017-12-02T12:16:21.879Z,225
2017-12-02T12:17:32.466Z,225
2017-12-02T12:18:42.799Z,225
2017-12-02T12:19:53.293Z,225
2017-12-02T12:21:03.274Z,230
2017-12-02T12:22:13.781Z,235
2017-12-02T12:23:23.816Z,235
2017-12-02T12:24:33.461Z,240
2017-12-02T12:25:44.099Z,240
2017-12-02T12:26:54.448Z,240
2017-12-02T12:28:04.470Z,240
2017-12-02T12:29:14.532Z,240
2017-12-02T12:30:25.267Z,240
2017-12-02T12:31:35.551Z,240
2017-12-02T12:32:46.138Z,240
2017-12-02T12:33:56.456Z,240
2017-12-02T12:35:06.752Z,235
2017-12-02T12:36:16.898Z,230
2017-12-02T12:37:27.279Z,225
2017-12-02T12:38:37.619Z,220
2017-12-02T12:39:47.745Z,215
2017-12-02T12:40:58.039Z,215
2017-12-02T12:42:07.979Z,210
2017-12-02T12:43:18.539Z,205
2017-12-02T12:44:28.856Z,195
2017-12-02T12:45:39.299Z,195
2017-12-02T12:46:49.646Z,190
2017-12-02T12:47:59.926Z,195
2017-12-02T12:49:10.289Z,185
2017-12-02T12:50:20.416Z,190
2017-12-02T12:51:29.954Z,190
2017-12-02T12:52:41.010Z,200
2017-12-02T12:53:51.407Z,205
2017-12-02T12:55:01.768Z,210
2017-12-02T12:56:11.469Z,210
2017-12-02T12:57:21.161Z,215
2017-12-02T12:58:31.482Z,215
2017-12-02T12:59:41.827Z,220
2017-12-02T13:00:52.105Z,220
2017-12-02T13:02:02.174Z,220
2017-12-02T13:03:12.565Z,220
2017-12-02T13:04:22.946Z,220
2017-12-02T13:05:33.240Z,215
2017-12-02T13:06:43.539Z,215
2017-12-02T13:07:53.578Z,215
2017-12-02T13:09:03.677Z,210
2017-12-02T13:10:13.699Z,210
2017-12-02T13:11:23.996Z,215
2017-12-02T13:12:34.434Z,225
2017-12-02T13:13:44.769Z,230
2017-12-02T13:14:55.087Z,225
2017-12-02T13:16:05.086Z,210
2017-12-02T13:17:15.124Z,190
2017-12-02T13:18:24.939Z,180
2017-12-02T13:19:34.980Z,175
2017-12-02T13:20:44.844Z,170
2017-12-02T13:21:55.294Z,160
2017-12-02T13:23:06.271Z,155
2017-12-02T13:24:16.533Z,150
2017-12-02T13:25:27.084Z,150
2017-12-02T13:26:37.323Z,145
2017-12-02T13:27:47.622Z,145
2017-12-02T13:28:58.029Z,145
2017-12-02T13:30:08.318Z,140
2017-12-02T13:31:18.607Z,140
2017-12-02T13:32:28.942Z,140
2017-12-02T13:33:39.116Z,135
2017-12-02T13:34:49.064Z,140
2017-12-02T13:35:59.110Z,140
2017-12-02T13:37:09.162Z,145
2017-12-02T13:38:18.948Z,145
2017-12-02T13:39:29.187Z,145
2017-12-02T13:40:39.494Z,150
2017-12-02T13:41:49.583Z,150
2017-12-02T13:42:59.886Z,155
2017-12-02T13:44:10.190Z,150
2017-12-02T13:45:20.589Z,150
2017-12-02T13:46:30.895Z,140
2017-12-02T13:47:41.223Z,135
2017-12-02T13:48:51.325Z,130
2017-12-02T13:50:01.406Z,125
2017-12-02T13:51:11.788Z,115
2017-12-02T13:52:21.842Z,110
2017-12-02T13:53:32.154Z,105
2017-12-02T13:54:42.486Z,100
2017-12-02T13:55:52.803Z,100
2017-12-02T13:57:02.553Z,95
2017-12-02T13:58:12.840Z,95
2017-12-02T13:59:22.926Z,95
2017-12-02T14:00:33.272Z,90
2017-12-02T14:01:43.421Z,90
2017-12-02T14:02:53.770Z,95
2017-12-02T14:04:03.866Z,100
2017-12-02T14:05:14.145Z,100
2017-12-02T14:06:24.416Z,95
2017-12-02T14:07:34.835Z,95
2017-12-02T14:08:44.922Z,95
2017-12-02T14:09:54.927Z,95
2017-12-02T14:11:04.942Z,90
2017-12-02T14:12:15.244Z,90
2017-12-02T14:13:25.541Z,90
2017-12-02T14:14:35.833Z,85
2017-12-02T14:15:46.087Z,85
2017-12-02T14:16:56.381Z,80
2017-12-02T14:18:06.794Z,80
2017-12-02T14:19:16.862Z,80
2017-12-02T14:20:26.943Z,80
2017-12-02T14:21:37.276Z,80
2017-12-02T14:22:47.702Z,75
2017-12-02T14:23:58.045Z,70
2017-12-02T14:25:08.068Z,70
2017-12-02T14:26:18.417Z,70
2017-12-02T14:27:28.770Z,70
2017-12-02T14:28:38.839Z,65
2017-12-02T14:29:49.214Z,60
2017-12-02T14:30:59.544Z,55
2017-12-02T14:32:10.057Z,55
2017-12-02T14:33:20.413Z,55
2017-12-02T14:34:30.670Z,55
2017-12-02T14:35:40.432Z,50
2017-12-02T14:36:50.555Z,50
2017-12-02T14:38:00.617Z,45
2017-12-02T14:39:10.985Z,45
2017-12-02T14:40:21.176Z,40
2017-12-02T14:41:31.525Z,35
2017-12-02T14:42:41.824Z,35
2017-12-02T14:43:52.250Z,30
2017-12-02T14:45:02.572Z,30
2017-12-02T14:46:12.945Z,25
2017-12-02T14:47:22.912Z,25
2017-12-02T14:48:33.233Z,20
2017-12-02T14:49:43.538Z,20
2017-12-02T14:50:53.629Z,20
2017-12-02T14:52:03.978Z,15
2017-12-02T14:53:14.322Z,15
2017-12-02T14:54:24.645Z,15
2017-12-02T14:55:34.968Z,10
2017-12-02T14:57:16.862Z,10
2017-12-02T14:58:26.892Z,10
2017-12-02T14:59:37.523Z,10
2017-12-02T15:00:47.544Z,10
2017-12-02T15:01:57.691Z,5
2017-12-02T15:03:07.458Z,5
2017-12-02T15:04:17.851Z,5
2017-12-02T15:05:28.180Z,5
2017-12-02T15:06:38.492Z,5
2017-12-02T15:07:48.888Z,5
2017-12-02T15:08:59.210Z,5
2017-12-02T15:10:09.461Z,5
2017-12-02T15:11:19.488Z,0
2017-12-02T15:12:29.841Z,0
2017-12-02T15:13:40.133Z,0
2017-12-02T15:14:50.460Z,0
2017-12-02T15:16:00.532Z,0
2017-12-02T15:17:10.900Z,0
2017-12-02T15:18:20.970Z,0
2017-12-02T15:19:31.074Z,0
2017-12-02T15:20:41.371Z,0
2017-12-02T15:21:51.746Z,0
2017-12-02T15:23:02.100Z,0
2017-12-02T15:24:12.147Z,0
2017-12-02T15:25:22.440Z,0
2017-12-02T15:26:32.503Z,0
2017-12-02T15:27:42.640Z,0
2017-12-02T15:28:52.985Z,0
2017-12-02T15:30:03.427Z,0
2017-12-02T15:31:14.074Z,0
2017-12-02T15:32:24.507Z,0
2017-12-02T15:34:06.664Z,0
2017-12-02T15:35:16.453Z,0
2017-12-02T15:36:26.423Z,0
2017-12-02T15:37:36.709Z,0
2017-12-02T15:38:47.032Z,0
2017-12-02T15:39:57.503Z,0
2017-12-02T15:41:07.847Z,0
2017-12-02T15:42:18.227Z,0
2017-12-02T15:43:28.647Z,0
2017-12-02T15:44:38.359Z,0
2017-12-02T15:45:48.719Z,0
2017-12-02T15:46:59.020Z,0
2017-12-02T15:48:10.261Z,0
2017-12-02T15:49:20.549Z,0
2017-12-02T15:50:30.914Z,0
2017-12-02T15:51:41.215Z,0
2017-12-02T15:52:51.521Z,0
2017-12-02T15:54:01.553Z,0
2017-12-02T15:55:11.854Z,0
2017-12-02T15:56:22.216Z,0
2017-12-02T15:57:32.416Z,0
2017-12-02T15:58:42.744Z,0
2017-12-02T15:59:52.792Z,0
2017-12-02T16:01:02.668Z,0
2017-12-02T16:02:13.029Z,0
2017-12-02T16:03:23.545Z,0
2017-12-02T16:04:33.565Z,0
2017-12-02T16:05:43.673Z,0
2017-12-02T16:06:54.047Z,0
2017-12-02T16:08:04.556Z,0
2017-12-02T16:09:14.636Z,0
2017-12-02T16:10:24.936Z,0
2017-12-02T16:11:34.980Z,0
2017-12-02T16:12:44.753Z,0
2017-12-02T16:13:54.992Z,0
2017-12-02T16:15:05.157Z,0
2017-12-02T16:16:15.222Z,0
2017-12-02T16:17:25.545Z,0
2017-12-02T16:18:35.857Z,0
2017-12-02T16:19:45.897Z,0
2017-12-02T16:20:56.009Z,0
2017-12-02T16:22:06.110Z,0
2017-12-02T16:23:17.041Z,0
2017-12-02T16:24:27.448Z,0
2017-12-02T16:25:37.891Z,0
2017-12-02T16:26:48.227Z,0
2017-12-02T16:27:58.617Z,0
2017-12-02T16:29:08.949Z,0
2017-12-02T16:30:18.986Z,0
2017-12-02T16:31:29.008Z,0
2017-12-02T16:32:39.467Z,0
2017-12-02T16:33:49.772Z,0
2017-12-02T16:35:00.116Z,0
2017-12-02T16:36:09.794Z,0
2017-12-02T16:37:19.488Z,0
2017-12-02T16:38:29.818Z,0
2017-12-02T16:39:40.144Z,0
2017-12-02T16:40:51.428Z,0
2017-12-02T16:42:01.744Z,0
2017-12-02T16:43:12.084Z,0
2017-12-02T16:44:22.374Z,0
2017-12-02T16:45:32.644Z,0
2017-12-02T16:46:43.124Z,0
2017-12-02T16:47:53.754Z,0
2017-12-02T16:49:04.123Z,0
2017-12-02T16:50:14.435Z,0
2017-12-02T16:51:24.535Z,0
2017-12-02T16:52:34.659Z,0
2017-12-02T16:53:44.957Z,0
2017-12-02T16:54:55.295Z,0